Time;durP1;ratioP1;P1;durP2;ratioP2;P2;SDS_P1;SDS_P2;PMS_P1;PMS_P2;Temp;Humidity;BMP_temperature;BMP_pressure;BME280_temperature;BME280_humidity;BME280_pressure;Samples;Min_cycle;Max_cycle;Signal;HPM_P1;HPM_P2
2021/06/03 00:00:46;;;;;;;13.73;9.30;;;;;;;;;;4996808;28;20041;-63
2021/06/03 00:03:13;;;;;;;12.63;9.23;;;;;;;;;;4990849;28;20046;-63
2021/06/03 00:05:41;;;;;;;13.68;10.27;;;;;;;;;;4993145;28;20122;-63
2021/06/03 00:08:08;;;;;;;17.20;9.52;;;;;;;;;;4997387;28;20033;-63
2021/06/03 00:10:35;;;;;;;14.10;10.27;;;;;;;;;;4994023;28;20156;-63
2021/06/03 00:13:02;;;;;;;15.95;10.35;;;;;;;;;;4989314;28;20023;-63
2021/06/03 00:15:28;;;;;;;16.40;11.45;;;;;;;;;;4990249;28;20029;-63
2021/06/03 00:17:55;;;;;;;18.58;11.48;;;;;;;;;;4990289;28;20046;-63
2021/06/03 00:20:23;;;;;;;13.90;10.88;;;;;;;;;;4995015;28;20068;-63
2021/06/03 00:22:50;;;;;;;14.98;11.05;;;;;;;;;;4989032;28;20122;-63
2021/06/03 00:25:16;;;;;;;16.08;11.38;;;;;;;;;;4998317;28;20033;-63
2021/06/03 00:27:42;;;;;;;14.57;10.80;;;;;;;;;;4989881;28;20083;-63
2021/06/03 00:30:09;;;;;;;16.80;11.20;;;;;;;;;;4991490;28;20056;-63
2021/06/03 00:32:35;;;;;;;16.98;10.40;;;;;;;;;;4992009;28;20064;-63
2021/06/03 00:35:01;;;;;;;19.25;11.13;;;;;;;;;;4991071;28;20025;-63
2021/06/03 00:37:27;;;;;;;14.77;10.48;;;;;;;;;;4992079;28;20029;-63
2021/06/03 00:39:53;;;;;;;15.88;9.93;;;;;;;;;;5006230;28;20109;-63
2021/06/03 00:42:19;;;;;;;15.02;10.93;;;;;;;;;;4990864;28;20026;-64
2021/06/03 00:44:45;;;;;;;15.80;10.15;;;;;;;;;;4993928;28;20573;-64
2021/06/03 00:47:12;;;;;;;16.25;10.43;;;;;;;;;;4997786;28;20034;-63
2021/06/03 00:49:38;;;;;;;15.25;10.23;;;;;;;;;;4989980;28;20026;-64
2021/06/03 00:52:04;;;;;;;13.65;9.70;;;;;;;;;;4989450;28;20038;-63
2021/06/03 00:54:30;;;;;;;13.07;10.13;;;;;;;;;;4990882;28;20030;-63
2021/06/03 00:56:56;;;;;;;15.77;10.45;;;;;;;;;;5000125;28;20209;-64
2021/06/03 00:59:22;;;;;;;15.07;11.27;;;;;;;;;;4989455;28;20046;-64
2021/06/03 01:01:48;;;;;;;15.30;10.32;;;;;;;;;;4990868;28;20492;-63
2021/06/03 01:04:19;;;;;;;13.88;9.88;;;;;;;;;;4987639;28;20485;-63
2021/06/03 01:06:45;;;;;;;16.42;11.15;;;;;;;;;;4992329;28;20022;-64
2021/06/03 01:09:19;;;;;;;13.23;9.57;;;;;;;;;;4998479;28;20037;-63
2021/06/03 01:11:50;;;;;;;16.45;10.20;;;;;;;;;;4989081;28;20066;-64
2021/06/03 01:14:26;;;;;;;13.77;10.13;;;;;;;;;;4988480;28;20035;-64
2021/06/03 01:16:54;;;;;;;13.27;10.18;;;;;;;;;;4993995;28;20034;-64
2021/06/03 01:19:40;;;;;;;14.68;10.00;;;;;;;;;;4988098;28;20037;-64
2021/06/03 01:22:15;;;;;;;15.52;10.90;;;;;;;;;;4989038;28;20097;-63
2021/06/03 01:24:43;;;;;;;15.63;10.68;;;;;;;;;;4992867;28;20029;-64
2021/06/03 01:27:10;;;;;;;15.23;10.88;;;;;;;;;;4997037;28;20121;-64
2021/06/03 01:29:49;;;;;;;14.70;9.88;;;;;;;;;;4998174;28;20053;-63
2021/06/03 01:32:15;;;;;;;13.50;10.93;;;;;;;;;;4990213;28;20022;-64
2021/06/03 01:34:41;;;;;;;16.00;11.65;;;;;;;;;;4995581;28;20037;-63
2021/06/03 01:37:08;;;;;;;14.77;11.10;;;;;;;;;;4994376;28;20019;-64
2021/06/03 01:39:35;;;;;;;14.13;11.20;;;;;;;;;;4988602;28;20042;-63
2021/06/03 01:42:01;;;;;;;17.80;12.13;;;;;;;;;;4992084;28;20425;-64
2021/06/03 01:44:28;;;;;;;15.48;11.70;;;;;;;;;;4990064;28;20097;-64
2021/06/03 01:46:54;;;;;;;18.63;12.50;;;;;;;;;;4997943;28;20079;-63
2021/06/03 01:49:20;;;;;;;19.02;13.63;;;;;;;;;;4987278;28;20031;-63
2021/06/03 01:51:46;;;;;;;17.00;13.38;;;;;;;;;;4989105;28;20027;-64
2021/06/03 01:54:13;;;;;;;18.08;14.10;;;;;;;;;;4987606;28;20057;-64
2021/06/03 01:56:40;;;;;;;18.60;13.88;;;;;;;;;;4992429;28;20493;-64
2021/06/03 01:59:06;;;;;;;17.75;13.25;;;;;;;;;;4992196;28;20057;-63
2021/06/03 02:01:32;;;;;;;18.17;14.10;;;;;;;;;;4996194;28;20022;-63
2021/06/03 02:03:58;;;;;;;17.08;13.02;;;;;;;;;;4988426;28;20034;-63
2021/06/03 02:06:25;;;;;;;21.38;14.82;;;;;;;;;;5006868;28;20042;-63
2021/06/03 02:08:51;;;;;;;19.88;13.88;;;;;;;;;;4991349;28;20039;-63
2021/06/03 02:11:17;;;;;;;18.40;13.73;;;;;;;;;;4991700;28;20034;-64
2021/06/03 02:13:45;;;;;;;20.75;13.88;;;;;;;;;;4994375;28;20113;-63
2021/06/03 02:16:29;;;;;;;19.90;13.95;;;;;;;;;;4996395;28;20026;-63
2021/06/03 02:18:55;;;;;;;18.02;14.45;;;;;;;;;;4991617;28;20031;-63
2021/06/03 02:21:22;;;;;;;18.00;14.32;;;;;;;;;;4987304;28;20034;-63
2021/06/03 02:23:49;;;;;;;19.55;14.55;;;;;;;;;;4985669;28;20018;-63
2021/06/03 02:26:15;;;;;;;20.70;13.88;;;;;;;;;;4984119;28;20493;-63
2021/06/03 02:28:42;;;;;;;21.17;14.95;;;;;;;;;;4992970;28;20030;-64
2021/06/03 02:31:08;;;;;;;17.73;13.80;;;;;;;;;;4978464;28;20034;-63
2021/06/03 02:33:34;;;;;;;18.00;15.10;;;;;;;;;;5004624;28;20045;-63
2021/06/03 02:36:01;;;;;;;22.40;14.82;;;;;;;;;;4996374;28;20038;-63
2021/06/03 02:38:28;;;;;;;21.88;14.77;;;;;;;;;;4986296;28;20611;-63
2021/06/03 02:40:58;;;;;;;19.70;14.88;;;;;;;;;;4988005;28;20049;-63
2021/06/03 02:43:24;;;;;;;24.88;15.27;;;;;;;;;;4998356;28;20117;-64
2021/06/03 02:45:50;;;;;;;20.92;13.68;;;;;;;;;;4996505;28;20026;-63
2021/06/03 02:48:16;;;;;;;16.40;13.35;;;;;;;;;;4983888;28;20034;-63
2021/06/03 02:50:43;;;;;;;21.42;13.98;;;;;;;;;;4988552;28;20036;-63
2021/06/03 02:53:09;;;;;;;17.92;14.80;;;;;;;;;;4987985;28;20078;-63
2021/06/03 02:55:35;;;;;;;23.15;16.60;;;;;;;;;;4995828;28;20246;-63
2021/06/03 02:58:01;;;;;;;19.58;14.52;;;;;;;;;;4997613;28;20477;-63
2021/06/03 03:00:28;;;;;;;18.45;14.23;;;;;;;;;;4986522;28;20034;-63
2021/06/03 03:02:55;;;;;;;20.40;15.18;;;;;;;;;;4986280;28;20114;-64
2021/06/03 03:05:21;;;;;;;18.75;15.07;;;;;;;;;;4990131;28;20030;-63
2021/06/03 03:07:48;;;;;;;20.17;14.77;;;;;;;;;;4988314;28;20026;-64
2021/06/03 03:10:17;;;;;;;24.20;14.88;;;;;;;;;;4992100;28;20045;-64
2021/06/03 03:12:43;;;;;;;21.88;15.25;;;;;;;;;;4989755;28;20043;-64
2021/06/03 03:15:11;;;;;;;22.00;15.10;;;;;;;;;;4990913;28;20497;-63
2021/06/03 03:17:37;;;;;;;22.05;15.13;;;;;;;;;;4990961;28;20033;-64
2021/06/03 03:20:04;;;;;;;19.40;14.65;;;;;;;;;;4990903;28;20042;-63
2021/06/03 03:22:30;;;;;;;19.27;15.13;;;;;;;;;;4989778;28;20056;-63
2021/06/03 03:24:56;;;;;;;22.10;16.38;;;;;;;;;;4991267;28;20435;-64
2021/06/03 03:27:22;;;;;;;19.75;15.18;;;;;;;;;;5000926;28;20037;-63
2021/06/03 03:29:48;;;;;;;17.75;15.02;;;;;;;;;;5006830;28;20083;-64
2021/06/03 03:32:14;;;;;;;20.73;15.95;;;;;;;;;;4999462;28;20451;-64
2021/06/03 03:34:40;;;;;;;21.50;16.60;;;;;;;;;;4989000;28;20124;-64
2021/06/03 03:37:07;;;;;;;21.00;14.77;;;;;;;;;;4990935;28;20066;-64
2021/06/03 03:39:33;;;;;;;21.02;16.30;;;;;;;;;;4990500;28;20045;-64
2021/06/03 03:41:59;;;;;;;20.83;16.42;;;;;;;;;;5000994;28;20093;-64
2021/06/03 03:44:25;;;;;;;26.95;17.52;;;;;;;;;;4991346;28;20030;-64
2021/06/03 03:46:52;;;;;;;22.42;17.23;;;;;;;;;;4990999;28;20031;-63
2021/06/03 03:49:18;;;;;;;22.92;16.80;;;;;;;;;;4990475;28;20042;-64
2021/06/03 03:51:44;;;;;;;19.90;15.77;;;;;;;;;;4991114;28;20049;-64
2021/06/03 03:54:10;;;;;;;25.05;16.73;;;;;;;;;;4987011;28;20023;-64
2021/06/03 03:56:36;;;;;;;22.20;16.70;;;;;;;;;;4990358;28;20034;-64
2021/06/03 03:59:02;;;;;;;21.27;16.02;;;;;;;;;;4988418;28;20133;-64
2021/06/03 04:01:30;;;;;;;27.65;16.67;;;;;;;;;;5007077;28;20442;-63
2021/06/03 04:03:56;;;;;;;25.17;16.98;;;;;;;;;;4989749;28;20039;-64
2021/06/03 04:06:22;;;;;;;26.25;18.95;;;;;;;;;;4991326;28;20038;-64
2021/06/03 04:08:48;;;;;;;23.27;17.95;;;;;;;;;;4992984;28;20034;-64
2021/06/03 04:11:14;;;;;;;21.08;17.13;;;;;;;;;;4989250;28;20014;-64
2021/06/03 04:13:40;;;;;;;24.90;18.73;;;;;;;;;;4996641;28;20110;-64
2021/06/03 04:16:06;;;;;;;24.02;18.25;;;;;;;;;;4990629;28;20059;-64
2021/06/03 04:18:33;;;;;;;23.90;18.73;;;;;;;;;;4990357;28;20022;-64
2021/06/03 04:20:59;;;;;;;27.70;18.95;;;;;;;;;;4991784;28;20482;-64
2021/06/03 04:23:25;;;;;;;26.55;18.88;;;;;;;;;;5000358;28;20109;-64
2021/06/03 04:25:51;;;;;;;23.90;19.17;;;;;;;;;;4984987;28;20480;-64
2021/06/03 04:28:17;;;;;;;25.00;18.55;;;;;;;;;;4981325;28;20027;-64
2021/06/03 04:30:45;;;;;;;25.45;17.13;;;;;;;;;;4987086;28;20037;-64
2021/06/03 04:33:11;;;;;;;24.10;17.85;;;;;;;;;;4979910;28;20054;-64
2021/06/03 04:35:38;;;;;;;25.65;18.30;;;;;;;;;;4993379;28;20031;-64
2021/06/03 04:38:04;;;;;;;23.30;17.45;;;;;;;;;;4977809;28;20027;-64
2021/06/03 04:40:31;;;;;;;25.60;18.50;;;;;;;;;;4974483;28;20030;-63
2021/06/03 04:42:58;;;;;;;25.30;19.35;;;;;;;;;;4986034;28;20113;-64
2021/06/03 04:45:24;;;;;;;23.42;17.63;;;;;;;;;;4989125;28;20035;-64
2021/06/03 04:47:50;;;;;;;25.42;19.25;;;;;;;;;;4991223;28;20496;-64
2021/06/03 04:50:19;;;;;;;26.33;18.48;;;;;;;;;;4999078;28;20493;-64
2021/06/03 04:52:46;;;;;;;21.10;16.02;;;;;;;;;;4987811;28;20026;-64
2021/06/03 04:55:17;;;;;;;26.27;18.98;;;;;;;;;;4989715;28;20045;-64
2021/06/03 04:57:43;;;;;;;27.73;18.90;;;;;;;;;;4989274;28;20131;-64
2021/06/03 05:00:16;;;;;;;23.83;17.98;;;;;;;;;;4997472;28;20038;-64
2021/06/03 05:02:43;;;;;;;26.55;17.85;;;;;;;;;;4997776;28;20038;-64
2021/06/03 05:05:10;;;;;;;22.33;16.58;;;;;;;;;;4998262;28;20042;-64
2021/06/03 05:07:36;;;;;;;22.08;17.17;;;;;;;;;;4993112;28;20041;-64
2021/06/03 05:10:03;;;;;;;23.30;17.33;;;;;;;;;;4999407;28;20413;-65
2021/06/03 05:12:29;;;;;;;27.05;17.08;;;;;;;;;;4988749;28;20019;-65
2021/06/03 05:14:55;;;;;;;23.80;17.27;;;;;;;;;;4991349;28;20029;-66
2021/06/03 05:17:21;;;;;;;24.23;18.40;;;;;;;;;;4998254;28;20026;-65
2021/06/03 05:19:47;;;;;;;27.15;17.95;;;;;;;;;;4994908;28;20055;-64
2021/06/03 05:22:13;;;;;;;25.45;17.02;;;;;;;;;;4993217;28;20038;-64
2021/06/03 05:24:39;;;;;;;25.90;17.85;;;;;;;;;;4995668;28;20030;-65
2021/06/03 05:27:06;;;;;;;25.55;18.92;;;;;;;;;;4998508;28;20042;-65
2021/06/03 05:29:32;;;;;;;26.83;17.50;;;;;;;;;;4987649;28;20030;-65
2021/06/03 05:31:58;;;;;;;25.88;18.85;;;;;;;;;;4993563;28;20030;-65
2021/06/03 05:34:24;;;;;;;21.85;17.00;;;;;;;;;;4983855;28;20027;-65
2021/06/03 05:36:51;;;;;;;24.58;17.40;;;;;;;;;;4992161;28;20079;-65
2021/06/03 05:39:17;;;;;;;23.23;17.92;;;;;;;;;;4982906;28;20043;-65
2021/06/03 05:41:43;;;;;;;22.85;18.00;;;;;;;;;;4982131;28;20030;-64
2021/06/03 05:44:10;;;;;;;22.75;16.58;;;;;;;;;;4983280;28;20477;-64
2021/06/03 05:46:37;;;;;;;23.33;17.95;;;;;;;;;;4981099;28;20436;-64
2021/06/03 05:49:04;;;;;;;25.88;17.98;;;;;;;;;;4985575;28;20027;-65
2021/06/03 05:51:31;;;;;;;28.73;18.33;;;;;;;;;;4986571;28;20046;-65
2021/06/03 05:53:57;;;;;;;27.80;18.02;;;;;;;;;;4978128;28;20019;-65
2021/06/03 05:56:25;;;;;;;26.23;18.17;;;;;;;;;;5000923;28;20027;-64
2021/06/03 05:58:51;;;;;;;27.70;18.10;;;;;;;;;;4987476;28;20050;-66
2021/06/03 06:01:17;;;;;;;24.13;17.55;;;;;;;;;;4981973;28;20571;-65
2021/06/03 06:03:48;;;;;;;28.42;21.15;;;;;;;;;;4983151;28;20069;-64
2021/06/03 06:06:26;;;;;;;24.98;18.67;;;;;;;;;;4988567;28;20105;-65
2021/06/03 06:08:53;;;;;;;29.85;19.83;;;;;;;;;;4982191;28;20030;-65
2021/06/03 06:11:19;;;;;;;23.10;18.55;;;;;;;;;;4985898;28;20079;-66
2021/06/03 06:13:46;;;;;;;29.08;18.60;;;;;;;;;;4982952;28;20022;-64
2021/06/03 06:16:12;;;;;;;26.10;18.52;;;;;;;;;;4980901;28;20405;-64
2021/06/03 06:18:38;;;;;;;29.38;18.38;;;;;;;;;;4978880;28;20022;-64
2021/06/03 06:21:05;;;;;;;27.23;18.83;;;;;;;;;;4982271;28;20065;-65
2021/06/03 06:23:33;;;;;;;30.08;19.55;;;;;;;;;;4982277;28;20015;-65
2021/06/03 06:25:59;;;;;;;23.02;18.27;;;;;;;;;;4994348;28;20058;-65
2021/06/03 06:28:25;;;;;;;27.67;19.73;;;;;;;;;;4985243;28;20022;-64
2021/06/03 06:30:52;;;;;;;27.88;19.95;;;;;;;;;;4984348;28;20022;-65
2021/06/03 06:33:18;;;;;;;27.25;20.30;;;;;;;;;;4984072;28;20457;-64
2021/06/03 06:35:48;;;;;;;29.08;20.83;;;;;;;;;;4981070;28;20023;-65
2021/06/03 06:38:14;;;;;;;27.52;19.88;;;;;;;;;;4981726;28;20044;-65
2021/06/03 06:40:40;;;;;;;33.22;21.67;;;;;;;;;;4986010;28;20179;-64
2021/06/03 06:43:06;;;;;;;29.80;21.85;;;;;;;;;;4980647;28;20564;-65
2021/06/03 06:45:32;;;;;;;32.70;22.65;;;;;;;;;;4985789;28;20157;-64
2021/06/03 06:47:59;;;;;;;30.65;21.63;;;;;;;;;;4990203;28;20050;-64
2021/06/03 06:50:26;;;;;;;34.00;22.38;;;;;;;;;;4989510;28;20022;-64
2021/06/03 06:52:53;;;;;;;31.23;20.83;;;;;;;;;;4986358;28;20031;-64
2021/06/03 06:55:19;;;;;;;27.45;21.42;;;;;;;;;;4989390;28;20057;-65
2021/06/03 06:57:45;;;;;;;37.78;23.48;;;;;;;;;;5001343;28;20586;-64
2021/06/03 07:00:12;;;;;;;33.88;23.58;;;;;;;;;;4995357;28;20087;-65
2021/06/03 07:02:38;;;;;;;34.90;23.73;;;;;;;;;;4988469;28;20050;-65
2021/06/03 07:05:07;;;;;;;33.40;24.30;;;;;;;;;;4990402;28;20398;-68
2021/06/03 07:07:33;;;;;;;40.35;25.40;;;;;;;;;;4988871;28;20037;-66
2021/06/03 07:09:59;;;;;;;42.72;27.02;;;;;;;;;;4986445;28;20030;-65
2021/06/03 07:12:25;;;;;;;42.33;27.52;;;;;;;;;;4991716;28;20053;-65
2021/06/03 07:14:51;;;;;;;40.88;27.00;;;;;;;;;;4995288;28;20019;-64
2021/06/03 07:17:17;;;;;;;40.80;27.35;;;;;;;;;;4991296;28;20015;-64
2021/06/03 07:19:43;;;;;;;39.40;26.20;;;;;;;;;;4991579;28;20026;-64
2021/06/03 07:22:10;;;;;;;40.47;28.10;;;;;;;;;;4992352;28;20029;-64
2021/06/03 07:24:36;;;;;;;43.47;28.45;;;;;;;;;;4990690;28;20038;-64
2021/06/03 07:27:03;;;;;;;39.17;29.77;;;;;;;;;;4992050;28;20038;-65
2021/06/03 07:29:30;;;;;;;42.67;30.63;;;;;;;;;;4988924;28;20031;-65
2021/06/03 07:31:56;;;;;;;48.53;33.38;;;;;;;;;;4996937;28;20053;-65
2021/06/03 07:34:22;;;;;;;43.25;30.10;;;;;;;;;;4990063;28;20221;-66
2021/06/03 07:36:48;;;;;;;41.58;28.83;;;;;;;;;;4987408;28;20019;-64
2021/06/03 07:39:14;;;;;;;44.72;29.25;;;;;;;;;;4988317;28;20035;-65
2021/06/03 07:41:40;;;;;;;41.15;29.98;;;;;;;;;;4988941;28;20303;-65
2021/06/03 07:44:06;;;;;;;46.80;31.60;;;;;;;;;;4986295;28;20057;-65
2021/06/03 07:46:33;;;;;;;44.33;32.50;;;;;;;;;;4988251;28;20026;-65
2021/06/03 07:48:59;;;;;;;46.40;32.90;;;;;;;;;;4990414;28;20285;-65
2021/06/03 07:51:25;;;;;;;43.40;32.70;;;;;;;;;;5009982;28;20441;-65
2021/06/03 07:53:51;;;;;;;44.22;33.22;;;;;;;;;;4987013;28;20026;-66
2021/06/03 07:56:17;;;;;;;46.30;34.63;;;;;;;;;;4990344;28;20027;-65
2021/06/03 07:58:44;;;;;;;47.13;32.42;;;;;;;;;;4997519;28;20054;-65
2021/06/03 08:01:10;;;;;;;47.10;35.95;;;;;;;;;;4987948;28;20023;-65
2021/06/03 08:03:36;;;;;;;43.47;31.73;;;;;;;;;;4985049;28;20026;-64
2021/06/03 08:06:02;;;;;;;42.83;32.50;;;;;;;;;;4988222;28;20058;-65
2021/06/03 08:08:34;;;;;;;45.60;33.28;;;;;;;;;;5001276;28;20042;-64
2021/06/03 08:11:00;;;;;;;44.97;32.30;;;;;;;;;;4986338;28;20034;-66
2021/06/03 08:13:26;;;;;;;43.60;32.05;;;;;;;;;;4985836;28;20031;-66
2021/06/03 08:15:52;;;;;;;46.05;32.13;;;;;;;;;;4988804;28;20084;-66
2021/06/03 08:18:18;;;;;;;44.38;32.08;;;;;;;;;;4989130;28;20056;-65
2021/06/03 08:20:48;;;;;;;41.15;29.92;;;;;;;;;;4997806;28;20031;-67
2021/06/03 08:23:15;;;;;;;51.60;33.90;;;;;;;;;;5006160;28;20026;-66
2021/06/03 08:25:41;;;;;;;45.47;29.92;;;;;;;;;;4989431;28;20083;-66
2021/06/03 08:28:07;;;;;;;45.30;32.38;;;;;;;;;;5005066;28;20034;-66
2021/06/03 08:30:34;;;;;;;50.88;33.20;;;;;;;;;;4991778;28;20022;-65
2021/06/03 08:33:01;;;;;;;52.88;35.33;;;;;;;;;;4985284;28;20019;-66
2021/06/03 08:35:27;;;;;;;50.65;34.25;;;;;;;;;;4989441;28;20125;-66
2021/06/03 08:37:54;;;;;;;50.05;33.25;;;;;;;;;;4988994;28;20033;-66
2021/06/03 08:40:23;;;;;;;53.67;33.13;;;;;;;;;;4986874;28;20077;-68
2021/06/03 08:42:51;;;;;;;49.75;32.95;;;;;;;;;;4981316;28;20030;-66
2021/06/03 08:45:17;;;;;;;49.63;33.22;;;;;;;;;;4989441;28;20027;-65
2021/06/03 08:47:43;;;;;;;49.22;32.53;;;;;;;;;;4990054;28;20030;-66
2021/06/03 08:50:10;;;;;;;51.45;35.80;;;;;;;;;;4987518;28;20052;-67
2021/06/03 08:52:36;;;;;;;47.35;32.20;;;;;;;;;;4986080;28;20324;-66
2021/06/03 08:55:04;;;;;;;52.22;32.85;;;;;;;;;;4989381;28;20014;-66
2021/06/03 08:57:31;;;;;;;52.28;33.83;;;;;;;;;;4988795;28;20058;-65
2021/06/03 08:59:57;;;;;;;47.05;31.58;;;;;;;;;;4988624;28;20030;-66
2021/06/03 09:02:23;;;;;;;51.10;32.65;;;;;;;;;;4987458;28;20045;-65
2021/06/03 09:04:49;;;;;;;45.20;29.35;;;;;;;;;;4988262;28;20565;-64
2021/06/03 09:07:28;;;;;;;46.17;29.50;;;;;;;;;;4988090;28;20447;-65
2021/06/03 09:09:54;;;;;;;47.95;27.27;;;;;;;;;;4988428;28;20087;-66
2021/06/03 09:12:20;;;;;;;47.75;26.48;;;;;;;;;;4985097;28;20068;-66
2021/06/03 09:14:46;;;;;;;41.60;26.02;;;;;;;;;;4986704;28;20038;-66
2021/06/03 09:17:12;;;;;;;45.35;25.92;;;;;;;;;;4988016;28;20466;-65
2021/06/03 09:19:54;;;;;;;42.97;27.55;;;;;;;;;;4986989;28;20026;-65
2021/06/03 09:22:36;;;;;;;42.78;26.30;;;;;;;;;;4989333;28;20075;-65
2021/06/03 09:25:22;;;;;;;43.65;24.73;;;;;;;;;;4988307;28;20022;-65
2021/06/03 09:27:48;;;;;;;41.40;25.10;;;;;;;;;;4986007;28;20493;-67
2021/06/03 09:30:14;;;;;;;43.25;27.27;;;;;;;;;;4987812;28;20505;-66
2021/06/03 09:32:53;;;;;;;43.78;25.20;;;;;;;;;;4984346;28;20022;-66
2021/06/03 09:35:19;;;;;;;37.88;24.02;;;;;;;;;;4983437;28;20088;-66
2021/06/03 09:37:45;;;;;;;44.03;25.17;;;;;;;;;;4988634;28;20022;-65
2021/06/03 09:40:23;;;;;;;39.50;24.63;;;;;;;;;;4988259;28;20030;-66
2021/06/03 09:43:10;;;;;;;37.42;21.85;;;;;;;;;;4986461;28;20056;-70
2021/06/03 09:45:56;;;;;;;44.60;24.23;;;;;;;;;;4988459;28;20022;-66
2021/06/03 09:48:36;;;;;;;31.17;19.77;;;;;;;;;;4985711;28;21104;-67
2021/06/03 09:51:19;;;;;;;31.92;19.75;;;;;;;;;;4988377;28;20501;-66
2021/06/03 09:53:51;;;;;;;37.33;22.13;;;;;;;;;;4984644;28;20061;-65
2021/06/03 09:56:25;;;;;;;33.97;22.05;;;;;;;;;;4985134;28;20025;-67
2021/06/03 09:58:52;;;;;;;38.60;22.27;;;;;;;;;;4987459;28;20036;-66
2021/06/03 10:01:37;;;;;;;34.10;20.60;;;;;;;;;;4986633;28;20091;-66
2021/06/03 10:04:03;;;;;;;34.35;21.15;;;;;;;;;;4981618;28;20096;-68
2021/06/03 10:06:29;;;;;;;39.97;20.30;;;;;;;;;;4987860;28;20101;-67
2021/06/03 10:08:56;;;;;;;35.22;20.73;;;;;;;;;;4987942;28;20027;-67
2021/06/03 10:11:41;;;;;;;32.25;20.52;;;;;;;;;;4988154;28;20029;-66
2021/06/03 10:14:08;;;;;;;34.33;20.85;;;;;;;;;;4984465;28;20053;-65
2021/06/03 10:16:34;;;;;;;37.38;21.17;;;;;;;;;;4986626;28;20019;-66
2021/06/03 10:19:27;;;;;;;42.15;22.38;;;;;;;;;;4990668;28;20096;-67
2021/06/03 10:22:13;;;;;;;38.28;22.98;;;;;;;;;;4990556;28;20417;-67
2021/06/03 10:24:46;;;;;;;35.10;22.02;;;;;;;;;;4990404;28;20033;-66
2021/06/03 10:27:12;;;;;;;36.75;22.15;;;;;;;;;;4992713;28;20059;-66
2021/06/03 10:29:39;;;;;;;36.33;22.27;;;;;;;;;;4990290;28;20401;-67
2021/06/03 10:32:05;;;;;;;33.80;21.38;;;;;;;;;;4990513;28;20075;-67
2021/06/03 10:34:33;;;;;;;40.28;23.35;;;;;;;;;;4989626;28;20007;-67
2021/06/03 10:36:59;;;;;;;34.38;22.83;;;;;;;;;;4989793;28;20081;-67
2021/06/03 10:39:25;;;;;;;38.78;22.58;;;;;;;;;;4989976;28;20027;-67
2021/06/03 10:41:52;;;;;;;40.38;26.77;;;;;;;;;;4990768;28;20060;-67
2021/06/03 10:44:18;;;;;;;40.22;22.95;;;;;;;;;;4988302;28;20621;-67
2021/06/03 10:46:44;;;;;;;38.83;21.63;;;;;;;;;;4990895;28;20050;-66
2021/06/03 10:49:10;;;;;;;35.50;21.42;;;;;;;;;;4988492;28;20038;-67
2021/06/03 10:51:39;;;;;;;42.38;24.50;;;;;;;;;;4991026;28;20031;-66
2021/06/03 10:54:05;;;;;;;41.20;24.15;;;;;;;;;;4987128;28;20442;-68
2021/06/03 10:56:31;;;;;;;38.00;24.17;;;;;;;;;;4991086;28;20015;-68
2021/06/03 10:58:58;;;;;;;46.22;25.90;;;;;;;;;;4988993;28;20124;-68
2021/06/03 11:01:24;;;;;;;37.65;23.75;;;;;;;;;;4990042;28;20022;-68
2021/06/03 11:03:55;;;;;;;39.35;23.70;;;;;;;;;;4987794;28;20025;-67
2021/06/03 11:06:22;;;;;;;34.42;22.88;;;;;;;;;;4989214;28;20031;-68
2021/06/03 11:09:00;;;;;;;37.72;22.00;;;;;;;;;;4990513;28;20029;-67
2021/06/03 11:11:27;;;;;;;32.30;20.17;;;;;;;;;;4989678;28;20019;-66
2021/06/03 11:13:53;;;;;;;35.25;20.92;;;;;;;;;;4987703;28;20536;-65
2021/06/03 11:16:26;;;;;;;36.83;20.73;;;;;;;;;;4990282;28;20042;-65
2021/06/03 11:18:56;;;;;;;33.75;20.83;;;;;;;;;;4988367;28;20026;-67
2021/06/03 11:21:34;;;;;;;26.67;17.63;;;;;;;;;;4989814;28;20580;-66
2021/06/03 11:24:10;;;;;;;35.60;21.25;;;;;;;;;;4987852;28;20026;-67
2021/06/03 11:26:39;;;;;;;35.67;20.98;;;;;;;;;;4990522;28;20501;-67
2021/06/03 11:29:14;;;;;;;33.63;19.58;;;;;;;;;;4988694;28;20037;-66
2021/06/03 11:31:43;;;;;;;35.45;20.33;;;;;;;;;;4989996;28;20041;-67
2021/06/03 11:34:21;;;;;;;28.88;19.58;;;;;;;;;;4986641;28;20879;-65
2021/06/03 11:36:57;;;;;;;27.48;17.70;;;;;;;;;;4990682;28;20050;-65
2021/06/03 11:39:32;;;;;;;28.95;17.15;;;;;;;;;;4988392;28;20109;-66
2021/06/03 11:42:18;;;;;;;27.20;16.63;;;;;;;;;;4989995;28;20045;-64
2021/06/03 11:45:03;;;;;;;28.73;16.95;;;;;;;;;;4989627;28;20038;-65
2021/06/03 11:47:57;;;;;;;32.03;17.73;;;;;;;;;;4989648;28;20544;-66
2021/06/03 11:50:23;;;;;;;25.67;17.30;;;;;;;;;;4989594;28;20569;-65
2021/06/03 11:53:02;;;;;;;26.70;16.80;;;;;;;;;;4987959;28;20172;-67
2021/06/03 11:55:28;;;;;;;25.02;15.63;;;;;;;;;;4990214;28;20022;-66
2021/06/03 11:58:09;;;;;;;25.38;14.73;;;;;;;;;;4990442;28;20520;-66
2021/06/03 12:00:54;;;;;;;24.17;15.60;;;;;;;;;;4988252;28;20507;-65
2021/06/03 12:03:26;;;;;;;24.85;15.75;;;;;;;;;;4986648;28;20062;-67
2021/06/03 12:05:54;;;;;;;21.33;13.20;;;;;;;;;;4987841;28;20042;-67
2021/06/03 12:08:33;;;;;;;22.25;14.38;;;;;;;;;;4987893;28;20077;-66
2021/06/03 12:11:00;;;;;;;24.27;13.85;;;;;;;;;;4985127;28;20152;-66
2021/06/03 12:13:26;;;;;;;21.92;14.30;;;;;;;;;;4986304;28;20026;-65
2021/06/03 12:15:52;;;;;;;22.33;12.35;;;;;;;;;;4989022;28;20050;-66
2021/06/03 12:18:18;;;;;;;18.80;12.50;;;;;;;;;;4989297;28;20025;-66
2021/06/03 12:20:45;;;;;;;25.98;14.48;;;;;;;;;;4991427;28;20038;-67
2021/06/03 12:23:11;;;;;;;23.13;13.75;;;;;;;;;;4983298;28;20048;-66
2021/06/03 12:25:39;;;;;;;23.95;12.95;;;;;;;;;;4989706;28;20034;-67
2021/06/03 12:28:06;;;;;;;23.98;15.43;;;;;;;;;;4993778;28;20038;-65
2021/06/03 12:30:34;;;;;;;22.95;14.30;;;;;;;;;;4989528;28;20049;-65
2021/06/03 12:33:00;;;;;;;23.23;15.45;;;;;;;;;;4987056;28;20079;-66
2021/06/03 12:35:37;;;;;;;21.48;12.77;;;;;;;;;;4989545;28;20062;-65
2021/06/03 12:38:05;;;;;;;22.83;12.32;;;;;;;;;;4989471;28;20026;-66
2021/06/03 12:40:31;;;;;;;24.30;13.82;;;;;;;;;;4988798;28;20129;-67
2021/06/03 12:43:06;;;;;;;25.40;13.18;;;;;;;;;;4982938;28;20025;-66
2021/06/03 12:45:35;;;;;;;22.83;14.05;;;;;;;;;;4988187;28;20061;-66
2021/06/03 12:48:01;;;;;;;22.33;12.93;;;;;;;;;;4988620;28;20076;-66
2021/06/03 12:50:27;;;;;;;24.05;14.18;;;;;;;;;;4988786;28;20034;-65
2021/06/03 12:52:53;;;;;;;20.92;13.25;;;;;;;;;;4986505;28;20023;-66
2021/06/03 12:55:26;;;;;;;22.35;12.60;;;;;;;;;;4987383;28;20022;-66
2021/06/03 12:57:52;;;;;;;18.27;10.95;;;;;;;;;;4987501;28;20073;-65
2021/06/03 13:00:23;;;;;;;20.48;11.95;;;;;;;;;;4989132;28;20030;-65
2021/06/03 13:02:49;;;;;;;23.42;12.40;;;;;;;;;;4985513;28;20026;-66
2021/06/03 13:05:16;;;;;;;22.23;13.05;;;;;;;;;;4988491;28;20117;-65
2021/06/03 13:07:44;;;;;;;23.17;12.98;;;;;;;;;;4984315;28;20037;-66
2021/06/03 13:10:11;;;;;;;22.98;12.77;;;;;;;;;;4987572;28;20042;-65
2021/06/03 13:12:44;;;;;;;20.45;11.13;;;;;;;;;;4985023;28;20026;-66
2021/06/03 13:15:11;;;;;;;25.40;13.10;;;;;;;;;;4989417;28;20037;-65
2021/06/03 13:17:39;;;;;;;23.63;12.68;;;;;;;;;;4989056;28;20184;-66
2021/06/03 13:20:15;;;;;;;24.60;13.80;;;;;;;;;;4989069;28;20037;-65
2021/06/03 13:22:46;;;;;;;25.83;11.90;;;;;;;;;;5048208;28;20087;-67
2021/06/03 13:25:12;;;;;;;23.27;12.38;;;;;;;;;;4988954;28;20097;-66
2021/06/03 13:27:44;;;;;;;25.70;12.93;;;;;;;;;;4989219;28;20125;-66
2021/06/03 13:30:12;;;;;;;17.25;11.43;;;;;;;;;;4986423;28;20131;-65
2021/06/03 13:32:39;;;;;;;24.50;12.95;;;;;;;;;;4986428;28;20233;-66
2021/06/03 13:35:08;;;;;;;23.33;12.48;;;;;;;;;;4989220;28;20046;-66
2021/06/03 13:37:35;;;;;;;21.73;12.43;;;;;;;;;;4988551;28;20122;-66
2021/06/03 13:40:06;;;;;;;22.95;12.30;;;;;;;;;;4989295;28;20031;-65
2021/06/03 13:42:38;;;;;;;20.60;11.90;;;;;;;;;;4984016;28;20041;-67
2021/06/03 13:45:04;;;;;;;24.58;12.90;;;;;;;;;;4988847;28;20122;-66
2021/06/03 13:47:54;;;;;;;22.27;13.43;;;;;;;;;;4988391;28;20027;-66
2021/06/03 13:50:28;;;;;;;24.05;14.10;;;;;;;;;;4980024;28;20045;-68
2021/06/03 13:53:00;;;;;;;22.10;12.77;;;;;;;;;;4985529;28;20023;-67
2021/06/03 13:55:31;;;;;;;23.08;13.10;;;;;;;;;;4988047;28;20489;-66
2021/06/03 13:57:58;;;;;;;24.87;13.27;;;;;;;;;;4988098;28;20156;-66
2021/06/03 14:00:25;;;;;;;25.33;14.05;;;;;;;;;;4988327;28;20034;-67
2021/06/03 14:03:06;;;;;;;25.83;14.20;;;;;;;;;;4985675;28;20042;-65
2021/06/03 14:05:32;;;;;;;23.35;14.23;;;;;;;;;;4969094;28;20039;-65
2021/06/03 14:08:25;;;;;;;22.75;15.07;;;;;;;;;;4969171;28;20041;-66
2021/06/03 14:11:08;;;;;;;25.65;14.88;;;;;;;;;;4981705;28;20046;-65
2021/06/03 14:13:46;;;;;;;23.20;13.70;;;;;;;;;;4985480;28;20027;-66
2021/06/03 14:16:13;;;;;;;24.52;12.52;;;;;;;;;;4980129;28;20023;-67
2021/06/03 14:18:39;;;;;;;24.02;14.35;;;;;;;;;;4983055;28;20082;-64
2021/06/03 14:21:09;;;;;;;23.02;13.60;;;;;;;;;;4980151;28;20485;-65
2021/06/03 14:23:38;;;;;;;28.35;13.93;;;;;;;;;;4985165;28;20037;-65